sensor_id;sensor_type;location;lat;lon;timestamp;P1;durP1;ratioP1;P2;durP2;ratioP2
14080;SDS011;7116;52.152;5.392;2024-01-30T00:02:09;12.10;;;8.30;;
14080;SDS011;7116;52.152;5.392;2024-01-30T00:04:34;13.67;;;9.03;;
14080;SDS011;7116;52.152;5.392;2024-01-30T00:06:59;11.27;;;8.57;;
14080;SDS011;7116;52.152;5.392;2024-01-30T00:09:24;16.60;;;9.63;;
14080;SDS011;7116;52.152;5.392;2024-01-30T00:11:50;15.37;;;9.03;;
14080;SDS011;7116;52.152;5.392;2024-01-30T00:14:18;14.55;;;10.02;;
14080;SDS011;7116;52.152;5.392;2024-01-30T00:16:45;13.65;;;9.18;;
14080;SDS011;7116;52.152;5.392;2024-01-30T00:19:11;13.52;;;8.85;;
14080;SDS011;7116;52.152;5.392;2024-01-30T00:21:36;12.77;;;8.33;;
14080;SDS011;7116;52.152;5.392;2024-01-30T00:24:01;15.33;;;10.87;;
14080;SDS011;7116;52.152;5.392;2024-01-30T00:26:27;12.30;;;8.80;;
14080;SDS011;7116;52.152;5.392;2024-01-30T00:28:52;13.27;;;9.50;;
14080;SDS011;7116;52.152;5.392;2024-01-30T00:31:17;13.77;;;8.93;;
14080;SDS011;7116;52.152;5.392;2024-01-30T00:33:43;15.07;;;8.90;;
14080;SDS011;7116;52.152;5.392;2024-01-30T00:36:08;14.25;;;8.93;;
14080;SDS011;7116;52.152;5.392;2024-01-30T00:38:34;17.80;;;9.97;;
14080;SDS011;7116;52.152;5.392;2024-01-30T00:40:59;14.40;;;9.57;;
14080;SDS011;7116;52.152;5.392;2024-01-30T00:43:24;12.97;;;8.67;;
14080;SDS011;7116;52.152;5.392;2024-01-30T00:45:50;11.07;;;7.80;;
14080;SDS011;7116;52.152;5.392;2024-01-30T00:48:17;14.07;;;8.23;;
14080;SDS011;7116;52.152;5.392;2024-01-30T00:50:42;16.23;;;9.53;;
14080;SDS011;7116;52.152;5.392;2024-01-30T00:53:07;11.93;;;7.93;;
14080;SDS011;7116;52.152;5.392;2024-01-30T00:55:33;11.73;;;8.17;;
14080;SDS011;7116;52.152;5.392;2024-01-30T00:57:58;16.43;;;9.33;;
14080;SDS011;7116;52.152;5.392;2024-01-30T01:00:23;14.60;;;7.77;;
14080;SDS011;7116;52.152;5.392;2024-01-30T01:02:53;13.87;;;9.03;;
14080;SDS011;7116;52.152;5.392;2024-01-30T01:05:19;13.70;;;9.07;;
14080;SDS011;7116;52.152;5.392;2024-01-30T01:07:44;14.13;;;9.50;;
14080;SDS011;7116;52.152;5.392;2024-01-30T01:10:10;15.63;;;8.82;;
14080;SDS011;7116;52.152;5.392;2024-01-30T01:12:36;14.65;;;9.05;;
14080;SDS011;7116;52.152;5.392;2024-01-30T01:15:01;14.10;;;8.47;;
14080;SDS011;7116;52.152;5.392;2024-01-30T01:17:27;14.20;;;9.03;;
14080;SDS011;7116;52.152;5.392;2024-01-30T01:19:52;16.20;;;8.77;;
14080;SDS011;7116;52.152;5.392;2024-01-30T01:22:17;14.87;;;8.73;;
14080;SDS011;7116;52.152;5.392;2024-01-30T01:24:43;14.05;;;8.93;;
14080;SDS011;7116;52.152;5.392;2024-01-30T01:27:09;17.43;;;9.60;;
14080;SDS011;7116;52.152;5.392;2024-01-30T01:29:34;16.17;;;10.17;;
14080;SDS011;7116;52.152;5.392;2024-01-30T01:31:59;11.97;;;9.23;;
14080;SDS011;7116;52.152;5.392;2024-01-30T01:34:24;14.70;;;9.10;;
14080;SDS011;7116;52.152;5.392;2024-01-30T01:36:50;16.07;;;9.37;;
14080;SDS011;7116;52.152;5.392;2024-01-30T01:39:15;15.60;;;10.25;;
14080;SDS011;7116;52.152;5.392;2024-01-30T01:41:40;12.63;;;8.80;;
14080;SDS011;7116;52.152;5.392;2024-01-30T01:44:07;14.57;;;9.97;;
14080;SDS011;7116;52.152;5.392;2024-01-30T01:46:32;14.90;;;9.32;;
14080;SDS011;7116;52.152;5.392;2024-01-30T01:48:58;15.50;;;10.73;;
14080;SDS011;7116;52.152;5.392;2024-01-30T01:51:24;11.60;;;8.23;;
14080;SDS011;7116;52.152;5.392;2024-01-30T01:53:49;15.02;;;9.75;;
14080;SDS011;7116;52.152;5.392;2024-01-30T01:56:15;11.35;;;8.18;;
14080;SDS011;7116;52.152;5.392;2024-01-30T01:58:41;14.97;;;10.17;;
14080;SDS011;7116;52.152;5.392;2024-01-30T02:01:09;13.95;;;9.57;;
14080;SDS011;7116;52.152;5.392;2024-01-30T02:03:34;13.30;;;8.70;;
14080;SDS011;7116;52.152;5.392;2024-01-30T02:05:59;12.60;;;8.33;;
14080;SDS011;7116;52.152;5.392;2024-01-30T02:08:24;12.90;;;8.50;;
14080;SDS011;7116;52.152;5.392;2024-01-30T02:10:50;13.80;;;8.37;;
14080;SDS011;7116;52.152;5.392;2024-01-30T02:13:15;15.17;;;8.47;;
14080;SDS011;7116;52.152;5.392;2024-01-30T02:15:40;11.80;;;7.77;;
14080;SDS011;7116;52.152;5.392;2024-01-30T02:18:05;13.60;;;9.17;;
14080;SDS011;7116;52.152;5.392;2024-01-30T02:20:30;12.17;;;8.47;;
14080;SDS011;7116;52.152;5.392;2024-01-30T02:22:56;15.25;;;8.85;;
14080;SDS011;7116;52.152;5.392;2024-01-30T02:25:39;16.08;;;8.70;;
14080;SDS011;7116;52.152;5.392;2024-01-30T02:28:12;10.88;;;8.73;;
14080;SDS011;7116;52.152;5.392;2024-01-30T02:30:38;10.73;;;7.90;;
14080;SDS011;7116;52.152;5.392;2024-01-30T02:33:03;13.90;;;7.93;;
14080;SDS011;7116;52.152;5.392;2024-01-30T02:35:29;11.77;;;8.80;;
14080;SDS011;7116;52.152;5.392;2024-01-30T02:37:54;12.70;;;9.03;;
14080;SDS011;7116;52.152;5.392;2024-01-30T02:40:19;14.40;;;9.00;;
14080;SDS011;7116;52.152;5.392;2024-01-30T02:42:44;11.87;;;7.80;;
14080;SDS011;7116;52.152;5.392;2024-01-30T02:45:10;15.03;;;8.17;;
14080;SDS011;7116;52.152;5.392;2024-01-30T02:47:35;11.95;;;8.32;;
14080;SDS011;7116;52.152;5.392;2024-01-30T02:50:00;10.40;;;8.53;;
14080;SDS011;7116;52.152;5.392;2024-01-30T02:52:25;11.60;;;7.93;;
14080;SDS011;7116;52.152;5.392;2024-01-30T02:54:51;14.67;;;9.10;;
14080;SDS011;7116;52.152;5.392;2024-01-30T02:57:16;11.03;;;7.57;;
14080;SDS011;7116;52.152;5.392;2024-01-30T02:59:41;12.30;;;7.90;;
14080;SDS011;7116;52.152;5.392;2024-01-30T03:02:06;15.07;;;8.53;;
14080;SDS011;7116;52.152;5.392;2024-01-30T03:04:32;11.93;;;8.87;;
14080;SDS011;7116;52.152;5.392;2024-01-30T03:06:57;11.63;;;8.03;;
14080;SDS011;7116;52.152;5.392;2024-01-30T03:09:22;12.47;;;8.83;;
14080;SDS011;7116;52.152;5.392;2024-01-30T03:11:48;16.27;;;8.77;;
14080;SDS011;7116;52.152;5.392;2024-01-30T03:14:13;15.93;;;10.23;;
14080;SDS011;7116;52.152;5.392;2024-01-30T03:16:39;16.35;;;9.93;;
14080;SDS011;7116;52.152;5.392;2024-01-30T03:19:06;15.50;;;11.47;;
14080;SDS011;7116;52.152;5.392;2024-01-30T03:21:32;20.48;;;10.80;;
14080;SDS011;7116;52.152;5.392;2024-01-30T03:23:57;18.67;;;11.80;;
14080;SDS011;7116;52.152;5.392;2024-01-30T03:26:23;18.60;;;10.90;;
14080;SDS011;7116;52.152;5.392;2024-01-30T03:28:51;16.80;;;11.43;;
14080;SDS011;7116;52.152;5.392;2024-01-30T03:31:16;16.33;;;10.13;;
14080;SDS011;7116;52.152;5.392;2024-01-30T03:33:42;13.27;;;9.87;;
14080;SDS011;7116;52.152;5.392;2024-01-30T03:36:07;16.03;;;9.00;;
14080;SDS011;7116;52.152;5.392;2024-01-30T03:38:32;16.13;;;11.07;;
14080;SDS011;7116;52.152;5.392;2024-01-30T03:40:58;16.77;;;10.17;;
14080;SDS011;7116;52.152;5.392;2024-01-30T03:43:24;20.33;;;10.00;;
14080;SDS011;7116;52.152;5.392;2024-01-30T03:45:49;15.43;;;10.60;;
14080;SDS011;7116;52.152;5.392;2024-01-30T03:48:14;14.90;;;9.50;;
14080;SDS011;7116;52.152;5.392;2024-01-30T03:50:39;16.07;;;8.97;;
14080;SDS011;7116;52.152;5.392;2024-01-30T03:53:04;15.93;;;9.67;;
14080;SDS011;7116;52.152;5.392;2024-01-30T03:55:29;16.47;;;9.13;;
14080;SDS011;7116;52.152;5.392;2024-01-30T03:57:55;13.63;;;9.63;;
14080;SDS011;7116;52.152;5.392;2024-01-30T04:00:20;12.97;;;8.27;;
14080;SDS011;7116;52.152;5.392;2024-01-30T04:02:45;18.57;;;9.73;;
14080;SDS011;7116;52.152;5.392;2024-01-30T04:05:10;15.00;;;9.77;;
14080;SDS011;7116;52.152;5.392;2024-01-30T04:07:35;14.40;;;9.03;;
14080;SDS011;7116;52.152;5.392;2024-01-30T04:10:01;12.83;;;8.43;;
14080;SDS011;7116;52.152;5.392;2024-01-30T04:12:26;12.33;;;8.23;;
14080;SDS011;7116;52.152;5.392;2024-01-30T04:14:51;13.57;;;8.93;;
14080;SDS011;7116;52.152;5.392;2024-01-30T04:17:16;12.33;;;8.47;;
14080;SDS011;7116;52.152;5.392;2024-01-30T04:19:41;13.60;;;9.40;;
14080;SDS011;7116;52.152;5.392;2024-01-30T04:22:09;13.47;;;9.10;;
14080;SDS011;7116;52.152;5.392;2024-01-30T04:24:34;12.88;;;8.43;;
14080;SDS011;7116;52.152;5.392;2024-01-30T04:26:59;15.73;;;8.00;;
14080;SDS011;7116;52.152;5.392;2024-01-30T04:29:24;21.13;;;9.03;;
14080;SDS011;7116;52.152;5.392;2024-01-30T04:31:50;15.93;;;8.60;;
14080;SDS011;7116;52.152;5.392;2024-01-30T04:34:15;12.53;;;8.97;;
14080;SDS011;7116;52.152;5.392;2024-01-30T04:36:42;12.10;;;7.90;;
14080;SDS011;7116;52.152;5.392;2024-01-30T04:39:08;10.48;;;7.97;;
14080;SDS011;7116;52.152;5.392;2024-01-30T04:41:33;12.30;;;7.77;;
14080;SDS011;7116;52.152;5.392;2024-01-30T04:43:58;12.43;;;9.43;;
14080;SDS011;7116;52.152;5.392;2024-01-30T04:46:26;12.10;;;7.20;;
14080;SDS011;7116;52.152;5.392;2024-01-30T04:48:51;10.65;;;7.97;;
14080;SDS011;7116;52.152;5.392;2024-01-30T04:51:18;12.37;;;7.80;;
14080;SDS011;7116;52.152;5.392;2024-01-30T04:53:43;11.75;;;7.10;;
14080;SDS011;7116;52.152;5.392;2024-01-30T04:56:08;11.13;;;7.83;;
14080;SDS011;7116;52.152;5.392;2024-01-30T04:58:33;11.10;;;7.67;;
14080;SDS011;7116;52.152;5.392;2024-01-30T05:00:59;11.67;;;7.23;;
14080;SDS011;7116;52.152;5.392;2024-01-30T05:03:24;12.23;;;7.03;;
14080;SDS011;7116;52.152;5.392;2024-01-30T05:05:49;10.20;;;7.03;;
14080;SDS011;7116;52.152;5.392;2024-01-30T05:08:14;12.37;;;7.57;;
14080;SDS011;7116;52.152;5.392;2024-01-30T05:10:39;12.93;;;7.80;;
14080;SDS011;7116;52.152;5.392;2024-01-30T05:13:05;12.87;;;6.97;;
14080;SDS011;7116;52.152;5.392;2024-01-30T05:15:30;10.37;;;6.83;;
14080;SDS011;7116;52.152;5.392;2024-01-30T05:17:55;10.37;;;7.43;;
14080;SDS011;7116;52.152;5.392;2024-01-30T05:20:20;11.33;;;7.27;;
14080;SDS011;7116;52.152;5.392;2024-01-30T05:22:45;12.17;;;7.87;;
14080;SDS011;7116;52.152;5.392;2024-01-30T05:25:12;11.33;;;7.20;;
14080;SDS011;7116;52.152;5.392;2024-01-30T05:27:37;10.15;;;7.13;;
14080;SDS011;7116;52.152;5.392;2024-01-30T05:30:03;11.10;;;6.90;;
14080;SDS011;7116;52.152;5.392;2024-01-30T05:32:28;12.53;;;7.20;;
14080;SDS011;7116;52.152;5.392;2024-01-30T05:34:53;14.27;;;7.97;;
14080;SDS011;7116;52.152;5.392;2024-01-30T05:37:19;9.40;;;6.43;;
14080;SDS011;7116;52.152;5.392;2024-01-30T05:39:44;12.17;;;7.93;;
14080;SDS011;7116;52.152;5.392;2024-01-30T05:42:09;11.03;;;6.77;;
14080;SDS011;7116;52.152;5.392;2024-01-30T05:44:35;11.07;;;7.18;;
14080;SDS011;7116;52.152;5.392;2024-01-30T05:47:00;9.73;;;6.27;;
14080;SDS011;7116;52.152;5.392;2024-01-30T05:49:25;11.30;;;8.77;;
14080;SDS011;7116;52.152;5.392;2024-01-30T05:51:50;7.50;;;5.03;;
14080;SDS011;7116;52.152;5.392;2024-01-30T05:54:18;11.37;;;8.43;;
14080;SDS011;7116;52.152;5.392;2024-01-30T05:56:43;10.38;;;7.30;;
14080;SDS011;7116;52.152;5.392;2024-01-30T05:59:08;12.82;;;8.52;;
14080;SDS011;7116;52.152;5.392;2024-01-30T06:01:35;11.00;;;6.87;;
14080;SDS011;7116;52.152;5.392;2024-01-30T06:04:01;13.15;;;8.68;;
14080;SDS011;7116;52.152;5.392;2024-01-30T06:06:26;12.43;;;7.45;;
14080;SDS011;7116;52.152;5.392;2024-01-30T06:08:54;10.95;;;8.48;;
14080;SDS011;7116;52.152;5.392;2024-01-30T06:11:21;10.65;;;6.18;;
14080;SDS011;7116;52.152;5.392;2024-01-30T06:13:46;12.63;;;7.27;;
14080;SDS011;7116;52.152;5.392;2024-01-30T06:16:12;10.95;;;7.45;;
14080;SDS011;7116;52.152;5.392;2024-01-30T06:18:37;12.30;;;7.60;;
14080;SDS011;7116;52.152;5.392;2024-01-30T06:21:03;8.07;;;6.43;;
14080;SDS011;7116;52.152;5.392;2024-01-30T06:23:29;10.43;;;6.93;;
14080;SDS011;7116;52.152;5.392;2024-01-30T06:25:54;11.40;;;7.17;;
14080;SDS011;7116;52.152;5.392;2024-01-30T06:28:19;10.73;;;7.30;;
14080;SDS011;7116;52.152;5.392;2024-01-30T06:30:44;10.57;;;7.77;;
14080;SDS011;7116;52.152;5.392;2024-01-30T06:33:11;9.50;;;6.53;;
14080;SDS011;7116;52.152;5.392;2024-01-30T06:35:36;12.85;;;7.22;;
14080;SDS011;7116;52.152;5.392;2024-01-30T06:38:04;12.80;;;7.43;;
14080;SDS011;7116;52.152;5.392;2024-01-30T06:40:30;11.03;;;7.30;;
14080;SDS011;7116;52.152;5.392;2024-01-30T06:42:55;10.80;;;7.17;;
14080;SDS011;7116;52.152;5.392;2024-01-30T06:45:20;8.93;;;6.53;;
14080;SDS011;7116;52.152;5.392;2024-01-30T06:47:45;16.23;;;7.83;;
14080;SDS011;7116;52.152;5.392;2024-01-30T06:50:11;12.20;;;6.87;;
14080;SDS011;7116;52.152;5.392;2024-01-30T06:52:36;11.15;;;7.35;;
14080;SDS011;7116;52.152;5.392;2024-01-30T06:55:01;10.45;;;6.78;;
14080;SDS011;7116;52.152;5.392;2024-01-30T06:57:26;11.85;;;6.00;;
14080;SDS011;7116;52.152;5.392;2024-01-30T06:59:56;10.00;;;7.07;;
14080;SDS011;7116;52.152;5.392;2024-01-30T07:02:21;10.57;;;6.78;;
14080;SDS011;7116;52.152;5.392;2024-01-30T07:04:46;9.70;;;7.77;;
14080;SDS011;7116;52.152;5.392;2024-01-30T07:07:11;12.27;;;8.07;;
14080;SDS011;7116;52.152;5.392;2024-01-30T07:09:38;10.82;;;7.15;;
14080;SDS011;7116;52.152;5.392;2024-01-30T07:12:03;9.82;;;7.13;;
14080;SDS011;7116;52.152;5.392;2024-01-30T07:14:28;12.27;;;7.40;;
14080;SDS011;7116;52.152;5.392;2024-01-30T07:16:54;10.50;;;6.53;;
14080;SDS011;7116;52.152;5.392;2024-01-30T07:19:22;12.20;;;7.70;;
14080;SDS011;7116;52.152;5.392;2024-01-30T07:21:47;10.32;;;6.78;;
14080;SDS011;7116;52.152;5.392;2024-01-30T07:24:13;12.63;;;8.07;;
14080;SDS011;7116;52.152;5.392;2024-01-30T07:26:38;11.30;;;6.97;;
14080;SDS011;7116;52.152;5.392;2024-01-30T07:29:03;13.43;;;8.73;;
14080;SDS011;7116;52.152;5.392;2024-01-30T07:31:29;11.55;;;7.47;;
14080;SDS011;7116;52.152;5.392;2024-01-30T07:33:54;9.00;;;7.13;;
14080;SDS011;7116;52.152;5.392;2024-01-30T07:36:19;12.03;;;7.17;;
14080;SDS011;7116;52.152;5.392;2024-01-30T07:38:49;8.88;;;6.43;;
14080;SDS011;7116;52.152;5.392;2024-01-30T07:41:20;10.15;;;6.65;;
14080;SDS011;7116;52.152;5.392;2024-01-30T07:44:06;15.38;;;8.32;;
14080;SDS011;7116;52.152;5.392;2024-01-30T07:46:33;12.27;;;6.90;;
14080;SDS011;7116;52.152;5.392;2024-01-30T07:49:01;11.97;;;7.10;;
14080;SDS011;7116;52.152;5.392;2024-01-30T07:51:27;10.07;;;6.70;;
14080;SDS011;7116;52.152;5.392;2024-01-30T07:53:54;12.52;;;8.05;;
14080;SDS011;7116;52.152;5.392;2024-01-30T07:56:25;14.05;;;7.78;;
14080;SDS011;7116;52.152;5.392;2024-01-30T07:58:58;11.05;;;7.13;;
14080;SDS011;7116;52.152;5.392;2024-01-30T08:01:23;12.97;;;6.57;;
14080;SDS011;7116;52.152;5.392;2024-01-30T08:03:49;12.60;;;7.03;;
14080;SDS011;7116;52.152;5.392;2024-01-30T08:06:41;12.23;;;7.30;;
14080;SDS011;7116;52.152;5.392;2024-01-30T08:09:26;15.13;;;7.43;;
14080;SDS011;7116;52.152;5.392;2024-01-30T08:14:51;15.30;;;7.70;;
14080;SDS011;7116;52.152;5.392;2024-01-30T08:20:24;13.52;;;5.85;;
14080;SDS011;7116;52.152;5.392;2024-01-30T08:23:12;9.15;;;6.65;;
14080;SDS011;7116;52.152;5.392;2024-01-30T08:25:59;15.20;;;7.10;;
14080;SDS011;7116;52.152;5.392;2024-01-30T08:29:06;13.00;;;7.53;;
14080;SDS011;7116;52.152;5.392;2024-01-30T08:34:25;12.10;;;7.55;;
14080;SDS011;7116;52.152;5.392;2024-01-30T08:49:16;11.95;;;7.40;;
14080;SDS011;7116;52.152;5.392;2024-01-30T08:55:34;12.63;;;7.07;;
14080;SDS011;7116;52.152;5.392;2024-01-30T09:01:49;13.40;;;7.18;;
14080;SDS011;7116;52.152;5.392;2024-01-30T09:04:35;19.00;;;8.32;;
14080;SDS011;7116;52.152;5.392;2024-01-30T09:19:32;15.63;;;7.20;;
14080;SDS011;7116;52.152;5.392;2024-01-30T09:25:05;14.85;;;7.32;;
14080;SDS011;7116;52.152;5.392;2024-01-30T09:27:32;12.43;;;7.03;;
14080;SDS011;7116;52.152;5.392;2024-01-30T09:30:11;12.43;;;6.75;;
14080;SDS011;7116;52.152;5.392;2024-01-30T09:32:54;14.23;;;7.20;;
14080;SDS011;7116;52.152;5.392;2024-01-30T09:35:39;14.60;;;7.57;;
14080;SDS011;7116;52.152;5.392;2024-01-30T09:38:12;14.82;;;7.13;;
14080;SDS011;7116;52.152;5.392;2024-01-30T09:40:45;14.30;;;7.43;;
14080;SDS011;7116;52.152;5.392;2024-01-30T09:43:15;15.45;;;7.38;;
14080;SDS011;7116;52.152;5.392;2024-01-30T09:45:47;14.77;;;7.30;;
14080;SDS011;7116;52.152;5.392;2024-01-30T09:54:47;10.90;;;6.28;;
14080;SDS011;7116;52.152;5.392;2024-01-30T10:00:47;13.02;;;7.30;;
14080;SDS011;7116;52.152;5.392;2024-01-30T10:06:48;12.45;;;7.25;;
14080;SDS011;7116;52.152;5.392;2024-01-30T10:09:33;14.38;;;7.72;;
14080;SDS011;7116;52.152;5.392;2024-01-30T10:11:59;17.40;;;6.82;;
14080;SDS011;7116;52.152;5.392;2024-01-30T10:14:24;13.03;;;8.10;;
14080;SDS011;7116;52.152;5.392;2024-01-30T10:19:58;11.63;;;6.60;;
14080;SDS011;7116;52.152;5.392;2024-01-30T10:22:39;15.88;;;6.75;;
14080;SDS011;7116;52.152;5.392;2024-01-30T10:25:07;10.25;;;6.82;;
14080;SDS011;7116;52.152;5.392;2024-01-30T10:28:11;13.27;;;7.35;;
14080;SDS011;7116;52.152;5.392;2024-01-30T10:34:13;15.10;;;8.00;;
14080;SDS011;7116;52.152;5.392;2024-01-30T10:36:49;12.50;;;7.40;;
14080;SDS011;7116;52.152;5.392;2024-01-30T10:39:21;10.25;;;7.32;;
14080;SDS011;7116;52.152;5.392;2024-01-30T10:42:10;16.30;;;7.35;;
14080;SDS011;7116;52.152;5.392;2024-01-30T10:44:56;14.50;;;6.75;;
14080;SDS011;7116;52.152;5.392;2024-01-30T10:47:25;12.83;;;6.70;;
14080;SDS011;7116;52.152;5.392;2024-01-30T10:49:51;14.23;;;7.00;;
14080;SDS011;7116;52.152;5.392;2024-01-30T10:52:16;17.35;;;7.32;;
14080;SDS011;7116;52.152;5.392;2024-01-30T10:54:43;17.80;;;6.53;;
14080;SDS011;7116;52.152;5.392;2024-01-30T10:57:09;10.13;;;6.70;;
14080;SDS011;7116;52.152;5.392;2024-01-30T10:59:35;15.23;;;10.20;;
14080;SDS011;7116;52.152;5.392;2024-01-30T11:02:00;11.77;;;6.50;;
14080;SDS011;7116;52.152;5.392;2024-01-30T11:04:26;10.80;;;6.43;;
14080;SDS011;7116;52.152;5.392;2024-01-30T11:06:51;13.93;;;7.03;;
14080;SDS011;7116;52.152;5.392;2024-01-30T11:09:19;13.98;;;7.38;;
14080;SDS011;7116;52.152;5.392;2024-01-30T11:11:48;12.67;;;6.40;;
14080;SDS011;7116;52.152;5.392;2024-01-30T11:14:13;12.75;;;6.82;;
14080;SDS011;7116;52.152;5.392;2024-01-30T11:16:39;13.47;;;5.23;;
14080;SDS011;7116;52.152;5.392;2024-01-30T11:19:04;11.82;;;6.32;;
14080;SDS011;7116;52.152;5.392;2024-01-30T11:21:41;7.78;;;4.75;;
14080;SDS011;7116;52.152;5.392;2024-01-30T11:24:06;12.93;;;6.37;;
14080;SDS011;7116;52.152;5.392;2024-01-30T11:26:32;11.55;;;5.78;;
14080;SDS011;7116;52.152;5.392;2024-01-30T11:29:07;13.63;;;6.95;;
14080;SDS011;7116;52.152;5.392;2024-01-30T11:31:35;11.48;;;5.05;;
14080;SDS011;7116;52.152;5.392;2024-01-30T11:34:01;8.73;;;5.57;;
14080;SDS011;7116;52.152;5.392;2024-01-30T11:36:30;5.57;;;4.17;;
14080;SDS011;7116;52.152;5.392;2024-01-30T11:38:57;6.63;;;4.43;;
14080;SDS011;7116;52.152;5.392;2024-01-30T11:41:22;8.67;;;3.70;;
14080;SDS011;7116;52.152;5.392;2024-01-30T11:44:06;7.65;;;4.20;;
14080;SDS011;7116;52.152;5.392;2024-01-30T11:49:40;7.38;;;3.63;;
14080;SDS011;7116;52.152;5.392;2024-01-30T11:52:06;8.60;;;3.30;;
14080;SDS011;7116;52.152;5.392;2024-01-30T11:54:51;7.00;;;2.77;;
14080;SDS011;7116;52.152;5.392;2024-01-30T11:57:16;5.00;;;2.30;;
14080;SDS011;7116;52.152;5.392;2024-01-30T11:59:42;6.80;;;2.83;;
14080;SDS011;7116;52.152;5.392;2024-01-30T12:02:07;7.32;;;2.92;;
14080;SDS011;7116;52.152;5.392;2024-01-30T12:04:34;6.20;;;2.83;;
14080;SDS011;7116;52.152;5.392;2024-01-30T12:06:59;6.22;;;2.72;;
14080;SDS011;7116;52.152;5.392;2024-01-30T12:09:26;8.35;;;3.15;;
14080;SDS011;7116;52.152;5.392;2024-01-30T12:11:52;5.43;;;2.77;;
14080;SDS011;7116;52.152;5.392;2024-01-30T12:14:18;5.60;;;3.70;;
14080;SDS011;7116;52.152;5.392;2024-01-30T12:16:47;7.35;;;3.33;;
14080;SDS011;7116;52.152;5.392;2024-01-30T12:19:20;8.70;;;3.42;;
14080;SDS011;7116;52.152;5.392;2024-01-30T12:21:46;4.85;;;2.47;;
14080;SDS011;7116;52.152;5.392;2024-01-30T12:24:11;5.57;;;3.70;;
14080;SDS011;7116;52.152;5.392;2024-01-30T12:26:36;5.17;;;3.20;;
14080;SDS011;7116;52.152;5.392;2024-01-30T12:29:03;12.00;;;4.80;;
14080;SDS011;7116;52.152;5.392;2024-01-30T12:31:31;6.80;;;3.15;;
14080;SDS011;7116;52.152;5.392;2024-01-30T12:33:59;6.78;;;4.40;;
14080;SDS011;7116;52.152;5.392;2024-01-30T12:36:28;9.37;;;3.47;;
14080;SDS011;7116;52.152;5.392;2024-01-30T12:38:53;5.60;;;3.25;;
14080;SDS011;7116;52.152;5.392;2024-01-30T12:41:19;6.57;;;3.27;;
14080;SDS011;7116;52.152;5.392;2024-01-30T12:43:45;5.93;;;3.00;;
14080;SDS011;7116;52.152;5.392;2024-01-30T12:46:13;6.13;;;3.50;;
14080;SDS011;7116;52.152;5.392;2024-01-30T12:48:38;8.97;;;2.93;;
14080;SDS011;7116;52.152;5.392;2024-01-30T12:51:04;8.67;;;3.00;;
14080;SDS011;7116;52.152;5.392;2024-01-30T12:53:32;7.93;;;3.17;;
14080;SDS011;7116;52.152;5.392;2024-01-30T12:55:58;9.80;;;4.07;;
14080;SDS011;7116;52.152;5.392;2024-01-30T12:58:24;5.45;;;3.13;;
14080;SDS011;7116;52.152;5.392;2024-01-30T13:00:49;7.67;;;3.37;;
14080;SDS011;7116;52.152;5.392;2024-01-30T13:03:14;7.73;;;3.30;;
14080;SDS011;7116;52.152;5.392;2024-01-30T13:05:42;7.95;;;3.45;;
14080;SDS011;7116;52.152;5.392;2024-01-30T13:08:07;7.67;;;3.03;;
14080;SDS011;7116;52.152;5.392;2024-01-30T13:10:32;6.07;;;3.30;;
14080;SDS011;7116;52.152;5.392;2024-01-30T13:12:57;6.93;;;2.80;;
14080;SDS011;7116;52.152;5.392;2024-01-30T13:15:23;8.13;;;2.83;;
14080;SDS011;7116;52.152;5.392;2024-01-30T13:17:48;8.00;;;2.83;;
14080;SDS011;7116;52.152;5.392;2024-01-30T13:20:14;6.60;;;2.97;;
14080;SDS011;7116;52.152;5.392;2024-01-30T13:22:47;5.28;;;2.50;;
14080;SDS011;7116;52.152;5.392;2024-01-30T13:25:13;4.65;;;2.20;;
14080;SDS011;7116;52.152;5.392;2024-01-30T13:27:38;7.15;;;3.03;;
14080;SDS011;7116;52.152;5.392;2024-01-30T13:30:04;5.17;;;2.47;;
14080;SDS011;7116;52.152;5.392;2024-01-30T13:32:29;6.17;;;2.67;;
14080;SDS011;7116;52.152;5.392;2024-01-30T13:34:54;4.80;;;2.53;;
14080;SDS011;7116;52.152;5.392;2024-01-30T13:37:22;6.50;;;2.40;;
14080;SDS011;7116;52.152;5.392;2024-01-30T13:39:48;4.82;;;2.90;;
14080;SDS011;7116;52.152;5.392;2024-01-30T13:42:13;6.47;;;2.40;;
14080;SDS011;7116;52.152;5.392;2024-01-30T13:44:38;4.23;;;2.20;;
14080;SDS011;7116;52.152;5.392;2024-01-30T13:47:04;5.25;;;2.42;;
14080;SDS011;7116;52.152;5.392;2024-01-30T13:49:29;6.97;;;3.17;;
14080;SDS011;7116;52.152;5.392;2024-01-30T13:51:54;3.37;;;2.23;;
14080;SDS011;7116;52.152;5.392;2024-01-30T13:54:19;8.43;;;3.37;;
14080;SDS011;7116;52.152;5.392;2024-01-30T13:56:45;6.03;;;2.60;;
14080;SDS011;7116;52.152;5.392;2024-01-30T13:59:10;6.90;;;3.57;;
14080;SDS011;7116;52.152;5.392;2024-01-30T14:01:35;5.20;;;2.10;;
14080;SDS011;7116;52.152;5.392;2024-01-30T14:04:00;5.83;;;4.17;;
14080;SDS011;7116;52.152;5.392;2024-01-30T14:06:28;3.93;;;2.33;;
14080;SDS011;7116;52.152;5.392;2024-01-30T14:08:53;6.60;;;3.75;;
14080;SDS011;7116;52.152;5.392;2024-01-30T14:14:24;10.50;;;4.07;;
14080;SDS011;7116;52.152;5.392;2024-01-30T14:16:50;4.03;;;2.72;;
14080;SDS011;7116;52.152;5.392;2024-01-30T14:19:15;6.40;;;4.05;;
14080;SDS011;7116;52.152;5.392;2024-01-30T14:21:41;5.17;;;3.33;;
14080;SDS011;7116;52.152;5.392;2024-01-30T14:24:06;6.30;;;3.77;;
14080;SDS011;7116;52.152;5.392;2024-01-30T14:26:31;4.50;;;2.87;;
14080;SDS011;7116;52.152;5.392;2024-01-30T14:28:56;6.90;;;3.47;;
14080;SDS011;7116;52.152;5.392;2024-01-30T14:31:22;7.30;;;3.07;;
14080;SDS011;7116;52.152;5.392;2024-01-30T14:33:49;9.30;;;3.22;;
14080;SDS011;7116;52.152;5.392;2024-01-30T14:36:17;5.67;;;2.90;;
14080;SDS011;7116;52.152;5.392;2024-01-30T14:38:42;5.97;;;2.33;;
14080;SDS011;7116;52.152;5.392;2024-01-30T14:41:21;3.75;;;2.45;;
14080;SDS011;7116;52.152;5.392;2024-01-30T14:43:57;7.18;;;3.70;;
14080;SDS011;7116;52.152;5.392;2024-01-30T14:46:46;5.90;;;2.20;;
14080;SDS011;7116;52.152;5.392;2024-01-30T14:49:21;8.82;;;4.22;;
14080;SDS011;7116;52.152;5.392;2024-01-30T14:51:46;5.67;;;2.77;;
14080;SDS011;7116;52.152;5.392;2024-01-30T14:54:32;6.30;;;4.03;;
14080;SDS011;7116;52.152;5.392;2024-01-30T14:56:57;7.90;;;3.17;;
14080;SDS011;7116;52.152;5.392;2024-01-30T14:59:25;8.48;;;4.85;;
14080;SDS011;7116;52.152;5.392;2024-01-30T15:01:51;7.32;;;4.15;;
14080;SDS011;7116;52.152;5.392;2024-01-30T15:04:16;7.47;;;4.63;;
14080;SDS011;7116;52.152;5.392;2024-01-30T15:06:41;5.47;;;3.50;;
14080;SDS011;7116;52.152;5.392;2024-01-30T15:09:18;7.00;;;5.50;;
14080;SDS011;7116;52.152;5.392;2024-01-30T15:11:46;9.48;;;4.22;;
14080;SDS011;7116;52.152;5.392;2024-01-30T15:14:21;6.13;;;5.07;;
14080;SDS011;7116;52.152;5.392;2024-01-30T15:16:46;8.07;;;4.53;;
14080;SDS011;7116;52.152;5.392;2024-01-30T15:19:29;7.90;;;4.85;;
14080;SDS011;7116;52.152;5.392;2024-01-30T15:24:50;8.73;;;4.53;;
14080;SDS011;7116;52.152;5.392;2024-01-30T15:36:51;6.85;;;4.13;;
14080;SDS011;7116;52.152;5.392;2024-01-30T15:39:26;7.10;;;4.95;;
14080;SDS011;7116;52.152;5.392;2024-01-30T15:41:54;5.90;;;3.60;;
14080;SDS011;7116;52.152;5.392;2024-01-30T15:44:40;5.75;;;4.15;;
14080;SDS011;7116;52.152;5.392;2024-01-30T15:47:07;6.80;;;4.40;;
14080;SDS011;7116;52.152;5.392;2024-01-30T15:49:53;6.07;;;3.80;;
14080;SDS011;7116;52.152;5.392;2024-01-30T15:55:26;6.07;;;4.18;;
14080;SDS011;7116;52.152;5.392;2024-01-30T15:58:03;8.02;;;4.18;;
14080;SDS011;7116;52.152;5.392;2024-01-30T16:00:49;7.45;;;4.40;;
14080;SDS011;7116;52.152;5.392;2024-01-30T16:03:21;7.73;;;4.30;;
14080;SDS011;7116;52.152;5.392;2024-01-30T16:09:12;6.43;;;4.75;;
14080;SDS011;7116;52.152;5.392;2024-01-30T16:14:50;5.78;;;4.28;;
14080;SDS011;7116;52.152;5.392;2024-01-30T16:17:16;7.10;;;5.00;;
14080;SDS011;7116;52.152;5.392;2024-01-30T16:19:43;5.35;;;4.82;;
14080;SDS011;7116;52.152;5.392;2024-01-30T16:22:09;8.53;;;5.23;;
14080;SDS011;7116;52.152;5.392;2024-01-30T16:24:35;7.77;;;5.30;;
14080;SDS011;7116;52.152;5.392;2024-01-30T16:27:08;12.00;;;5.45;;